Menu       Home   X °C

Select another period ( hide this area )

Units Period Custom range Directly to
Metric English Both
Daily Weekly Monthly Yearly
use both date-selectors for a custom range
previous Day
With this date
Daily Summary for Sunday 25 February 2024
Time Temp. ( °F ) Dew pt. ( °F ) Wind ( mph ) From Gust ( mph ) Pressure ( in ) Humid.( % ) Rainrate ( in )
High63.0 29.1 6.0 ENE ( 204/302 ) 9.0 30.07 97 -
Average41.8 24.4 1.3 ENE #109/230 1.7 30.00 61 -
Low23.9 11.8 -   0.0 29.96 21 -
Daily Tabular details for Sunday 25 February 2024
Time Temp. ( °F ) Dew pt. ( °F ) Wind ( mph ) From Gust ( mph ) Pressure ( in ) Humid.( % ) Rainrate ( in )
00:04 31.8 26.4   Calm   29.97 81 -
00:09 31.5 26.1   Calm   29.98 80 -
00:14 31.1 26.2   Calm 1.0 29.98 82 -
00:19 30.9 26.1   Calm 1.0 29.98 82 -
00:24 30.7 26.1   Calm   29.99 83 -
00:29 30.6 26.2   Calm 1.0 29.99 84 -
00:34 30.4 26.1 1.0 ENE 1.0 29.99 84 -
00:39 30.6 26.1 1.0 ENE 1.0 29.99 84 -
00:44 30.6 26.2   Calm   29.99 84 -
00:49 30.6 26.2   Calm   29.99 84 -
00:54 30.2 25.9   Calm   29.99 84 -
00:59 30.6 25.7   Calm   29.99 82 -
01:04 30.6 26.1   Calm   29.99 84 -
01:09 30.4 26.6   Calm   30.00 86 -
01:14 29.8 26.2   Calm   29.99 87 -
01:19 29.3 25.9   Calm   30.00 87 -
01:24 28.9 25.3   Calm   30.00 87 -
01:29 28.8 25.3   Calm   29.99 87 -
01:34 28.8 25.5   Calm   29.99 88 -
01:39 28.6 25.3   Calm   29.99 88 -
01:44 28.4 25.2   Calm   29.99 88 -
01:49 28.4 25.2   Calm   29.99 88 -
01:54 28.4 25.2   Calm   29.99 88 -
01:59 28.2 25.0   Calm   30.00 88 -
02:04 28.0 25.0   Calm   29.99 89 -
02:09 27.9 25.2   Calm   29.99 90 -
02:14 27.7 25.5   Calm   29.99 91 -
02:19 27.7 25.5   Calm   29.99 91 -
02:24 27.7 25.5   Calm   30.00 91 -
02:29 27.5 25.3   Calm   30.00 91 -
02:34 27.5 25.3   Calm   30.00 91 -
02:39 27.3 25.2   Calm   30.00 91 -
02:44 27.3 25.3   Calm   30.00 92 -
02:49 27.3 25.3   Calm   30.00 92 -
02:54 27.3 25.3   Calm   30.01 92 -
02:59 27.3 25.3   Calm   30.01 92 -
03:04 27.1 25.2   Calm   30.01 92 -
03:09 27.0 25.0   Calm   30.01 92 -
03:14 26.8 25.0   Calm   30.01 93 -
03:19 26.6 24.8   Calm   30.01 93 -
03:24 26.8 25.0   Calm   30.01 93 -
03:29 26.8 25.2   Calm   30.00 94 -
03:34 26.6 25.0   Calm   30.01 94 -
03:39 26.6 25.0   Calm   30.00 94 -
03:44 26.4 24.8   Calm 1.0 30.00 94 -
03:49 26.4 24.8   Calm   30.01 94 -
03:54 26.4 24.8   Calm   30.01 94 -
03:59 26.4 24.8   Calm 1.0 30.01 94 -
04:04 26.2 25.0   Calm   30.01 95 -
04:09 26.4 25.2   Calm   30.01 95 -
04:14 26.4 25.2   Calm   30.02 95 -
04:19 26.1 24.8 1.0 ENE 1.0 30.01 95 -
04:24 25.9 24.6 1.0 ENE 1.0 30.01 95 -
04:29 25.9 24.6   Calm   30.01 95 -
04:34 25.9 24.6   Calm   30.01 95 -
04:39 25.9 24.6   Calm   30.02 95 -
04:44 25.9 25.0   Calm   30.02 96 -
04:49 25.9 25.0   Calm   30.02 96 -
04:54 25.7 24.4   Calm   30.02 95 -
04:59 25.7 24.8   Calm   30.02 96 -
05:04 25.7 24.8   Calm   30.02 96 -
05:09 25.5 24.6   Calm   30.02 96 -
05:14 25.3 24.4   Calm   30.02 96 -
05:19 25.2 24.3   Calm   30.02 96 -
05:24 25.2 24.3   Calm   30.02 96 -
05:29 25.2 24.3   Calm   30.02 96 -
05:34 25.2 24.3   Calm   30.02 96 -
05:39 25.0 24.1   Calm   30.02 96 -
05:44 25.0 24.1   Calm   30.03 96 -
05:49 25.0 24.1   Calm   30.02 96 -
05:54 24.8 23.9   Calm   30.02 96 -
05:59 24.8 23.9   Calm   30.03 96 -
06:04 24.8 23.9   Calm   30.03 96 -
06:09 24.6 23.9   Calm   30.03 97 -
06:14 24.4 23.7   Calm   30.03 97 -
06:19 24.4 23.7   Calm   30.04 97 -
06:24 24.6 23.9   Calm   30.04 97 -
06:29 24.6 23.9   Calm   30.04 97 -
06:34 24.4 23.7   Calm   30.04 97 -
06:39 24.3 23.5   Calm   30.05 97 -
06:44 24.3 23.5   Calm   30.04 97 -
06:49 24.1 23.4   Calm   30.04 97 -
06:54 24.1 23.4   Calm   30.04 97 -
06:59 24.1 23.4   Calm   30.04 97 -
07:04 24.1 23.4   Calm   30.04 97 -
07:09 23.9 23.2   Calm   30.04 97 -
07:14 23.9 23.2   Calm   30.04 97 -
07:19 23.9 23.2   Calm   30.05 97 -
07:24 23.9 23.2   Calm   30.05 97 -
07:29 23.9 23.2   Calm   30.05 97 -
07:34 24.1 23.4   Calm 1.0 30.05 97 -
07:39 24.3 23.5   Calm 1.0 30.05 97 -
07:44 24.4 23.7 1.0 ENE 1.0 30.06 97 -
07:49 24.6 23.9 1.0 ENE 1.0 30.06 97 -
07:54 25.0 24.3 1.0 ENE 1.0 30.06 97 -
07:59 25.2 24.3 1.0 ENE 1.0 30.06 96 -
08:04 25.5 24.6 1.0 ENE 2.0 30.06 96 -
08:09 26.1 24.8 1.0 ENE 1.0 30.07 96 -
08:14 26.2 25.0 1.0 ENE 1.0 30.07 95 -
08:19 26.4 25.0 1.0 ENE 2.0 30.07 95 -
08:24 26.8 25.0 1.0 ENE 2.0 30.07 94 -
08:29 27.5 25.5 1.0 ENE 2.0 30.07 93 -
08:34 27.9 25.7 2.0 ENE 2.0 30.07 91 -
08:39 28.4 25.9 1.0 ENE 1.0 30.07 91 -
08:44 28.9 26.1 1.0 ENE 1.0 30.07 90 -
08:49 29.7 26.4 1.0 ENE 1.0 30.07 89 -
08:54 30.2 26.6 1.0 ENE 1.0 30.07 88 -
08:59 30.9 27.0 1.0 ENE 1.0 30.07 86 -
09:04 31.6 27.3 1.0 ENE 2.0 30.07 85 -
09:09 32.2 27.3 1.0 ENE 2.0 30.07 83 -
09:14 32.7 27.1 1.0 ENE 2.0 30.07 81 -
09:19 33.3 27.5 1.0 ENE 1.0 30.06 80 -
09:24 34.0 27.5 1.0 ENE 1.0 30.07 79 -
09:29 34.5 27.9 1.0 ENE 1.0 30.07 77 -
09:34 34.9 27.7 1.0 ENE 2.0 30.07 75 -
09:39 35.6 28.0 1.0 ENE 1.0 30.06 75 -
09:44 36.5 28.8 1.0 ENE 2.0 30.06 75 -
09:49 37.2 28.4 1.0 ENE 2.0 30.06 72 -
09:54 38.1 28.6 1.0 ENE 1.0 30.06 70 -
09:59 38.7 28.9 2.0 ENE 2.0 30.07 68 -
10:04 39.4 29.1 1.0 ENE 2.0 30.07 68 -
10:09 40.1 28.6 1.0 ENE 1.0 30.07 64 -
10:14 41.0 26.8 1.0 ENE 2.0 30.07 58 -
10:19 41.9 25.7 1.0 ENE 2.0 30.07 54 -
10:24 43.2 23.9 1.0 ENE 1.0 30.06 48 -
10:29 44.8 23.0 1.0 ENE 1.0 30.06 43 -
10:34 45.3 20.7 1.0 ENE 2.0 30.07 38 -
10:39 46.0 21.7 1.0 ENE 1.0 30.07 38 -
10:44 46.0 19.2 1.0 ENE 1.0 30.07 34 -
10:49 46.4 18.9 1.0 ENE 2.0 30.07 33 -
10:54 46.9 17.1 1.0 ENE 1.0 30.07 30 -
10:59 47.7 16.5 1.0 ENE 1.0 30.07 29 -
11:04 48.6 18.0 1.0 ENE 1.0 30.07 30 -
11:09 48.9 19.2 1.0 ENE 2.0 30.06 31 -
11:14 49.1 14.7 3.0 ENE 3.0 30.07 25 -
11:19 49.6 11.8 2.0 ENE 3.0 30.07 22 -
11:24 50.9 12.0 2.0 ENE 2.0 30.06 21 -
11:29 52.9 14.0 1.0 ENE 2.0 30.06 22 -
11:34 54.7 16.7 1.0 ENE 1.0 30.06 22 -
11:39 54.5 14.2 2.0 ENE 2.0 30.07 21 -
11:44 54.9 15.8 2.0 ENE 2.0 30.05 22 -
11:49 55.6 16.3 2.0 ENE 2.0 30.05 21 -
11:54 55.9 16.5 2.0 ENE 2.0 30.05 21 -
11:59 56.8 19.4 1.0 ENE 1.0 30.05 23 -
12:04 56.8 18.1 2.0 ENE 2.0 30.05 22 -
12:09 55.8 20.1 2.0 ENE 2.0 30.05 25 -
12:14 58.3 19.6 1.0 ENE 2.0 30.04 23 -
12:19 58.3 20.7 2.0 ENE 2.0 30.05 23 -
12:24 58.3 24.6 1.0 ENE 2.0 30.04 28 -
12:29 59.2 22.6 1.0 ENE 1.0 30.04 25 -
12:34 59.4 21.9 3.0 ENE 3.0 30.04 24 -
12:39 58.5 23.7 2.0 ENE 2.0 30.03 26 -
12:44 57.4 20.8 3.0 ENE 3.0 30.02 24 -
12:49 58.1 23.0 3.0 ENE 3.0 30.02 26 -
12:54 58.3 22.5 2.0 ENE 3.0 30.02 25 -
12:59 58.3 21.4 3.0 ENE 3.0 30.02 24 -
13:04 58.1 21.6 2.0 ENE 2.0 30.02 24 -
13:09 58.6 21.9 3.0 ENE 3.0 30.02 24 -
13:14 59.0 21.9 2.0 ENE 3.0 30.02 24 -
13:19 59.4 23.4 3.0 ENE 3.0 30.02 25 -
13:24 59.9 23.5 2.0 ENE 2.0 30.01 25 -
13:29 59.7 22.8 3.0 ENE 3.0 30.01 24 -
13:34 60.6 25.3 2.0 ENE 2.0 30.01 26 -
13:39 60.1 23.2 3.0 ENE 3.0 30.00 24 -
13:44 59.7 23.9 2.0 ENE 2.0 30.00 25 -
13:49 60.3 25.2 2.0 ENE 3.0 30.00 26 -
13:54 60.6 25.3 3.0 ENE 3.0 29.99 26 -
13:59 60.8 25.7 2.0 ENE 2.0 29.99 26 -
14:04 61.5 24.4 3.0 ENE 3.0 29.99 24 -
14:09 61.9 25.5 4.0 ENE 5.0 29.99 25 -
14:14 61.7 25.3 2.0 ENE 5.0 29.99 25 -
14:19 61.7 23.5 3.0 ENE 5.0 29.98 23 -
14:24 62.1 25.7 2.0 ENE 3.0 29.98 25 -
14:29 62.1 26.6 1.0 ENE 2.0 29.98 26 -
14:34 61.9 26.6 4.0 ENE 6.0 29.98 26 -
14:39 60.8 24.6 3.0 ENE 6.0 29.98 25 -
14:44 60.6 24.1 3.0 ENE 3.0 29.98 25 -
14:49 60.1 25.2 3.0 ENE 3.0 29.98 26 -
14:54 60.4 25.5 3.0 ENE 3.0 29.98 26 -
14:59 62.1 26.8 2.0 ENE 2.0 29.98 26 -
15:04 62.6 28.9 2.0 ENE 3.0 29.98 28 -
15:09 62.6 27.1 2.0 ENE 3.0 29.97 26 -
15:14 63.0 27.7 3.0 ENE 3.0 29.97 26 -
15:19 62.6 26.4 3.0 ENE 3.0 29.98 25 -
15:24 62.6 25.9 3.0 ENE 3.0 29.97 25 -
15:29 62.8 27.3 5.0 ENE 5.0 29.98 26 -
15:34 62.6 27.5 3.0 ENE 3.0 29.97 27 -
15:39 61.9 26.6 2.0 ENE 2.0 29.97 26 -
15:44 61.3 26.2 2.0 ENE 3.0 29.97 26 -
15:49 61.2 26.1 3.0 ENE 3.0 29.97 26 -
15:54 61.7 26.6   Calm 1.0 29.97 26 -
15:59 61.7 27.5 2.0 ENE 2.0 29.97 27 -
16:04 61.5 26.4 3.0 ENE 3.0 29.97 26 -
16:09 60.8 25.5 6.0 ENE 7.0 29.97 26 -
16:14 60.6 26.4 3.0 ENE 7.0 29.97 27 -
16:19 60.6 25.5 2.0 ENE 5.0 29.97 26 -
16:24 60.6 25.5 3.0 ENE 5.0 29.97 26 -
16:29 60.6 26.4 4.0 ENE 6.0 29.97 27 -
16:34 60.4 26.4 3.0 East 6.0 29.97 27 -
16:39 60.3 26.2 3.0 East 5.0 29.97 27 -
16:44 60.3 27.1 2.0 East 2.0 29.97 28 -
16:49 60.4 27.1 1.0 East 1.0 29.97 28 -
16:54 60.6 28.2 3.0 East 3.0 29.97 29 -
16:59 60.4 26.4 3.0 East 3.0 29.97 27 -
17:04 60.3 26.2 4.0 East 5.0 29.97 27 -
17:09 60.3 26.2 6.0 East 7.0 29.96 27 -
17:14 59.9 25.7 6.0 ESE 9.0 29.97 27 -
17:19 59.7 25.5 4.0 SSE 6.0 29.97 27 -
17:24 59.4 24.4 3.0 South 5.0 29.97 26 -
17:29 59.2 24.4 5.0 South 6.0 29.97 26 -
17:34 59.2 24.4 5.0 SSW 6.0 29.97 26 -
17:39 59.2 24.3 4.0 SSW 6.0 29.97 26 -
17:44 59.0 24.3 2.0 SSW 5.0 29.97 26 -
17:49 59.0 25.0 4.0 SSW 5.0 29.97 27 -
17:54 58.8 25.7 2.0 SSW 3.0 29.97 28 -
17:59 58.5 25.3 2.0 SSW 2.0 29.98 28 -
18:04 58.3 25.2 3.0 SSW 3.0 29.97 28 -
18:09 57.9 25.0 4.0 SSW 5.0 29.98 28 -
18:14 57.9 25.0 3.0 SSW 5.0 29.98 28 -
18:19 57.6 24.8 4.0 SSW 6.0 29.97 28 -
18:24 57.2 25.3 3.0 South 6.0 29.98 29 -
18:29 57.0 25.9 1.0 South 2.0 29.98 30 -
18:34 56.7 25.5 1.0 South 1.0 29.98 30 -
18:39 56.3 25.3 2.0 South 2.0 29.98 30 -
18:44 56.1 25.2 2.0 South 2.0 29.99 30 -
18:49 56.1 25.2 3.0 South 3.0 29.99 30 -
18:54 55.9 25.0 4.0 South 6.0 29.98 30 -
18:59 55.9 25.0 2.0 South 2.0 29.99 30 -
19:04 55.8 25.5 1.0 South 3.0 29.99 31 -
19:09 55.6 25.5 3.0 South 3.0 30.00 31 -

Download your copy of this data-set  from WeatherUnderground

Our weather-data as stored at Weather Underground

Original Weather Page

My Ham Radio Page